Latest Weather Observations for Busselton Airport

IDW60801

Issued at 12:03 pm WST Friday 29 July 2016 (issued every 30 minutes, with the page automatically refreshed every 10 minutes)

About weather observations | Map of weather stations | Latest weather observations for WA | Other Formats
Station Details ID: 009603 Name: BUSSELTON AERO Lat: -33.69 Lon: 115.40 Height: 16.3 m
Data from the previous 72 hours. | See also: Recent months at Busselton Airport
Date/Time
WST
Temp
°C
App
Temp
°C
Dew
Point
°C
Rel
Hum
%
Delta-T
°C
Wind Press
QNH
hPa
Press
MSL
hPa
Rain since
9am
mm
Dir  Spd
km/h
Gust
km/h
Spd
kts
Gust
kts
29/12:00pm 17.1 13.1 15.3 89 1.1 N 30 41 16 22 1009.3 1009.3 0.4
29/11:30am 16.5 13.0 15.4 93 0.6 N 28 41 15 22 1010.3 1010.3 0.4
29/11:00am 15.4 13.0 14.3 93 0.6 N 20 30 11 16 1011.1 1011.1 0.2
29/10:30am 15.2 11.0 12.3 83 1.6 NNE 26 37 14 20 1011.4 1011.4 0.2
29/10:00am 15.4 11.4 11.8 79 1.9 NNE 24 35 13 19 1011.5 1011.5 0.0
29/09:30am 15.1 11.1 11.7 80 1.8 NNE 24 33 13 18 1011.9 1011.9 0.0
29/09:00am 13.9 11.4 12.3 90 0.9 NE 17 22 9 12 1012.6 1012.6 0.0
29/08:30am 13.5 10.8 13.5 100 0.0 NNE 20 28 11 15 1013.2 1013.2 0.0
29/08:00am 11.5 10.3 11.5 100 0.0 ENE 9 11 5 6 1013.6 1013.6 0.0
29/07:30am 11.1 10.1 11.1 100 0.0 NE 7 9 4 5 1014.0 1014.0 0.0
29/07:00am 10.8 9.4 10.8 100 0.0 ENE 9 9 5 5 1013.8 1013.8 0.0
29/06:30am 10.7 9.2 10.7 100 0.0 NE 9 11 5 6 1014.1 1014.1 0.0
29/06:00am 10.4 8.5 10.4 100 0.0 ENE 11 13 6 7 1014.1 1014.1 0.0
29/05:30am 9.5 8.1 9.5 100 0.0 ENE 7 7 4 4 1014.7 1014.7 0.0
29/05:00am 8.9 7.3 8.8 99 0.0 SE 7 9 4 5 1014.9 1014.9 0.0
29/04:30am 8.7 7.2 8.6 99 0.0 S 6 7 3 4 1015.3 1015.3 0.0
29/04:00am 9.0 7.4 8.9 99 0.0 SW 7 9 4 5 1016.1 1016.1 0.0
29/03:30am 9.2 9.0 9.2 100 0.0 CALM 0 0 0 0 1016.5 1016.5 0.0
29/03:00am 7.6 5.7 7.5 99 0.0 SSE 7 9 4 5 1016.6 1016.6 0.0
29/02:30am 7.4 6.8 7.3 99 0.0 CALM 0 0 0 0 1017.2 1017.2 0.0
29/02:00am 9.0 8.8 8.9 99 0.0 CALM 0 0 0 0 1017.5 1017.5 0.0
29/01:30am 9.1 7.7 9.0 99 0.0 SE 6 7 3 4 1017.6 1017.6 0.0
29/01:00am 8.7 8.4 8.6 99 0.0 CALM 0 0 0 0 1018.0 1018.0 0.0
29/12:30am 9.9 9.9 9.8 99 0.1 CALM 0 0 0 0 1018.3 1018.4 0.0
29/12:00am 9.6 9.5 9.5 99 0.0 CALM 0 7 0 4 1018.5 1018.6 0.0
 
Date/Time
WST
Temp
°C
App
Temp
°C
Dew
Point
°C
Rel
Hum
%
Delta-T
°C
Wind Press
QNH
hPa
Press
MSL
hPa
Rain since
9am
mm
Dir  Spd
km/h
Gust
km/h
Spd
kts
Gust
kts
28/11:30pm 10.4 10.5 10.2 99 0.1 CALM 0 0 0 0 1019.0 1019.1 0.0
28/11:00pm 10.7 9.6 10.5 99 0.1 S 7 9 4 5 1019.1 1019.2 0.0
28/10:30pm 11.1 10.6 10.9 99 0.1 SSW 4 7 2 4 1019.6 1019.7 0.0
28/10:00pm 11.0 10.1 10.7 98 0.2 E 6 9 3 5 1019.8 1019.9 0.0
28/09:30pm 11.5 10.1 11.0 97 0.3 ENE 9 11 5 6 1020.0 1020.1 0.0
28/09:00pm 11.0 9.4 10.1 94 0.5 E 9 11 5 6 1020.1 1020.2 0.0
28/08:30pm 11.9 10.5 10.8 93 0.6 SE 9 9 5 5 1020.3 1020.4 0.0
28/08:00pm 12.9 12.0 11.3 90 0.8 SE 7 9 4 5 1020.5 1020.6 0.0
28/07:30pm 14.4 14.1 12.6 89 1.0 SE 6 7 3 4 1020.5 1020.6 0.0
28/07:00pm 15.1 14.9 13.0 87 1.2 SE 6 7 3 4 1020.4 1020.5 0.0
28/06:30pm 15.4 15.6 13.1 86 1.3 S 4 9 2 5 1020.3 1020.4 0.0
28/06:00pm 15.4 15.6 13.2 87 1.2 S 4 7 2 4 1020.0 1020.1 0.0
28/05:30pm 15.6 15.2 12.9 84 1.5 S 7 9 4 5 1019.7 1019.8 0.0
28/05:00pm 16.6 15.5 13.1 80 1.9 S 11 13 6 7 1019.6 1019.7 0.0
28/04:30pm 18.2 18.7 12.9 71 3.0 W 2 9 1 5 1019.5 1019.6 0.0
28/04:00pm 18.0 17.8 13.1 73 2.7 N 6 9 3 5 1019.3 1019.4 0.0
28/03:30pm 18.0 16.3 13.5 75 2.5 N 15 19 8 10 1019.5 1019.6 0.0
28/03:00pm 18.5 17.4 13.1 71 3.0 NNW 11 15 6 8 1019.2 1019.3 0.0
28/02:30pm 18.6 17.2 13.5 72 2.9 N 13 17 7 9 1019.1 1019.2 0.0
28/02:00pm 18.3 17.1 12.7 70 3.1 NNW 11 15 6 8 1019.1 1019.2 0.0
28/01:30pm 18.5 17.8 13.1 71 3.0 NNW 9 13 5 7 1019.5 1019.6 0.0
28/01:00pm 17.8 17.0 12.9 73 2.7 NNW 9 13 5 7 1019.9 1020.0 0.0
28/12:30pm 18.3 17.6 13.2 72 2.9 NNW 9 13 5 7 1020.4 1020.5 0.0
28/12:00pm 17.7 16.9 12.8 73 2.7 NNE 9 17 5 9 1020.9 1021.0 0.0
28/11:30am 17.0 15.2 12.1 73 2.7 N 13 17 7 9 1021.3 1021.4 0.0
28/11:00am 17.0 16.0 12.3 74 2.6 N 9 13 5 7 1021.7 1021.8 0.0
28/10:30am 16.5 16.1 12.3 76 2.3 NE 6 9 3 5 1022.0 1022.1 0.0
28/10:00am 14.6 13.1 10.4 76 2.2 NE 9 11 5 6 1022.2 1022.3 0.0
28/09:30am 14.0 12.3 10.0 77 2.1 ENE 9 11 5 6 1022.4 1022.5 0.0
28/09:00am 12.9 13.1 11.8 93 0.6 SE 2 7 1 4 1022.3 1022.4 0.0
28/08:30am 11.4 10.5 10.8 96 0.3 SE 6 7 3 4 1022.0 1022.1 0.0
28/08:00am 10.6 10.7 10.0 96 0.3 CALM 0 0 0 0 1021.8 1021.9 0.0
28/07:30am 10.1 8.9 9.6 97 0.3 SE 6 7 3 4 1021.7 1021.8 0.0
28/07:00am 10.1 8.9 9.6 97 0.2 SE 6 7 3 4 1021.6 1021.7 0.0
28/06:30am 10.1 8.9 9.6 97 0.3 ESE 6 7 3 4 1021.3 1021.4 0.0
28/06:00am 9.9 8.7 9.6 98 0.1 ESE 6 7 3 4 1021.2 1021.3 0.0
28/05:30am 9.6 8.2 9.0 96 0.3 SSE 6 7 3 4 1021.3 1021.4 0.0
28/05:00am 9.8 9.7 9.3 97 0.2 CALM 0 6 0 3 1021.3 1021.4 0.0
28/04:30am 9.3 7.7 8.8 97 0.2 ESE 7 9 4 5 1021.3 1021.4 0.0
28/04:00am 9.6 8.1 9.0 96 0.3 E 7 9 4 5 1021.6 1021.7 0.0
28/03:30am 9.2 7.7 8.4 95 0.4 E 6 7 3 4 1021.7 1021.8 0.0
28/03:00am 9.1 6.9 8.0 93 0.5 E 9 9 5 5 1021.7 1021.8 0.0
28/02:30am 10.2 8.7 9.3 94 0.4 NE 7 9 4 5 1022.1 1022.2 0.0
28/02:00am 10.5 9.7 9.7 95 0.4 ENE 4 6 2 3 1022.1 1022.2 0.0
28/01:30am 10.4 8.6 9.5 94 0.5 ESE 9 11 5 6 1021.8 1021.9 0.0
28/01:00am 10.6 10.6 9.7 94 0.5 CALM 0 0 0 0 1022.2 1022.3 0.0
28/12:30am 10.3 8.9 9.4 94 0.4 E 7 9 4 5 1022.1 1022.2 0.0
28/12:00am 10.3 9.0 9.2 93 0.5 E 6 7 3 4 1022.5 1022.6 0.0
 
Date/Time
WST
Temp
°C
App
Temp
°C
Dew
Point
°C
Rel
Hum
%
Delta-T
°C
Wind Press
QNH
hPa
Press
MSL
hPa
Rain since
9am
mm
Dir  Spd
km/h
Gust
km/h
Spd
kts
Gust
kts
27/11:30pm 10.7 9.5 9.6 93 0.6 E 6 9 3 5 1022.7 1022.8 0.0
27/11:00pm 10.6 9.2 9.7 94 0.5 ENE 7 9 4 5 1023.1 1023.2 0.0
27/10:30pm 10.4 8.6 9.3 93 0.5 ENE 9 11 5 6 1023.3 1023.4 0.0
27/10:00pm 10.5 8.7 9.4 93 0.5 E 9 11 5 6 1023.7 1023.7 0.0
27/09:30pm 10.7 9.5 9.5 92 0.6 ESE 6 9 3 5 1023.9 1023.9 0.0
27/09:00pm 11.1 11.1 9.9 92 0.6 CALM 0 0 0 0 1024.4 1024.4 0.0
27/08:30pm 10.8 8.7 9.7 93 0.6 ESE 11 13 6 7 1024.0 1024.0 0.0
27/08:00pm 10.8 8.6 9.4 91 0.7 E 11 13 6 7 1023.9 1023.9 0.0
27/07:30pm 11.0 9.7 9.3 89 0.9 SE 6 11 3 6 1024.0 1024.0 0.0
27/07:00pm 11.0 9.4 8.9 87 1.0 SE 7 9 4 5 1023.9 1023.9 0.0
27/06:30pm 11.6 10.1 8.6 82 1.5 NNW 6 7 3 4 1024.0 1024.0 0.0
27/06:00pm 13.3 13.2 9.4 77 2.0 CALM 0 0 0 0 1024.1 1024.1 0.0
27/05:30pm 13.6 13.5 9.5 76 2.1 CALM 0 6 0 3 1023.7 1023.7 0.0
27/05:00pm 13.9 12.5 9.5 75 2.2 NNW 7 9 4 5 1023.7 1023.7 0.0
27/04:30pm 14.6 13.3 9.2 70 2.8 N 6 7 3 4 1023.5 1023.5 0.0
27/04:00pm 14.8 12.9 9.2 69 2.9 N 9 13 5 7 1023.5 1023.5 0.0
27/03:30pm 14.9 12.6 9.1 68 3.0 N 11 15 6 8 1023.6 1023.6 0.0
27/03:00pm 15.3 12.2 9.0 66 3.2 N 15 19 8 10 1023.6 1023.6 0.0
27/02:30pm 15.4 12.4 9.1 66 3.2 N 15 19 8 10 1023.6 1023.6 0.0
27/02:00pm 16.1 13.5 9.5 65 3.4 NNE 13 19 7 10 1023.7 1023.7 0.0
27/01:30pm 15.7 12.6 8.9 64 3.5 N 15 17 8 9 1024.0 1024.0 0.0
27/01:00pm 15.6 12.9 8.8 64 3.5 N 13 19 7 10 1024.6 1024.6 0.0
27/12:30pm 15.8 13.1 9.0 64 3.5 N 13 19 7 10 1025.2 1025.2 0.0
27/12:00pm 15.3 12.7 9.4 68 3.0 N 13 17 7 9 1025.8 1025.8 0.0
27/11:30am 15.2 12.2 9.3 68 3.0 N 15 19 8 10 1026.3 1026.3 0.0
27/11:00am 15.7 14.8 11.3 75 2.3 NE 7 13 4 7 1026.6 1026.6 0.0
27/10:30am 14.6 13.8 12.8 89 1.0 NE 9 11 5 6 1027.0 1027.0 0.0
27/10:00am 13.1 12.3 12.9 99 0.1 NE 9 11 5 6 1027.1 1027.1 0.0
27/09:30am 12.2 11.2 12.2 100 0.0 ENE 9 13 5 7 1027.2 1027.2 0.0
27/09:00am 10.7 8.9 10.7 100 0.0 E 11 13 6 7 1026.7 1026.7 0.0
27/08:30am 8.8 6.8 8.8 100 0.0 ENE 9 13 5 7 1026.8 1026.8 0.0
27/08:00am 6.7 3.8 6.6 99 0.0 ENE 11 13 6 7 1027.0 1027.0 0.0
27/07:30am 4.5 1.9 4.4 99 0.0 E 7 9 4 5 1027.0 1027.0 0.0
27/07:00am 4.5 1.6 4.4 99 0.0 E 9 13 5 7 1026.9 1026.9 0.0
27/06:30am 4.0 1.3 3.9 99 0.0 ESE 7 7 4 4 1027.4 1027.4 0.0
27/06:00am 4.6 3.4 4.5 99 0.0 CALM 0 0 0 0 1027.7 1027.7 0.0
27/05:30am 5.0 3.9 4.9 99 0.0 CALM 0 0 0 0 1027.4 1027.4 0.0
27/05:00am 4.8 2.5 4.7 99 0.0 SSE 6 7 3 4 1026.8 1026.8 0.0
27/04:30am 5.3 4.2 5.2 99 0.0 CALM 0 0 0 0 1026.9 1026.9 0.0
27/04:00am 5.6 3.8 5.5 99 0.0 SSE 4 7 2 4 1027.0 1027.0 0.0
27/03:30am 5.1 2.3 5.0 99 0.0 SSE 9 9 5 5 1027.2 1027.2 0.0
27/03:00am 5.9 4.6 5.8 99 0.0 SSE 2 7 1 4 1027.4 1027.4 0.0
27/02:30am 6.6 5.8 6.5 99 0.0 CALM 0 0 0 0 1027.5 1027.5 0.0
27/02:00am 5.9 4.9 5.8 99 0.0 CALM 0 0 0 0 1027.5 1027.5 0.0
27/01:30am 7.1 6.4 7.0 99 0.0 CALM 0 0 0 0 1027.6 1027.6 0.0
27/01:00am 7.5 6.9 7.4 99 0.0 CALM 0 0 0 0 1027.4 1027.4 0.0
27/12:30am 7.6 5.6 7.3 98 0.1 ESE 7 9 4 5 1027.4 1027.4 0.0
27/12:00am 8.1 6.5 7.8 98 0.1 ESE 6 9 3 5 1027.6 1027.6 0.0
 
Date/Time
WST
Temp
°C
App
Temp
°C
Dew
Point
°C
Rel
Hum
%
Delta-T
°C
Wind Press
QNH
hPa
Press
MSL
hPa
Rain since
9am
mm
Dir  Spd
km/h
Gust
km/h
Spd
kts
Gust
kts
26/11:30pm 7.9 5.6 7.5 97 0.2 ESE 9 9 5 5 1027.8 1027.8 0.0
26/11:00pm 8.9 6.8 8.3 96 0.3 ESE 9 9 5 5 1027.8 1027.8 0.0
26/10:30pm 9.4 7.4 8.6 95 0.4 SE 9 9 5 5 1028.1 1028.1 0.0
26/10:00pm 10.5 8.7 9.4 93 0.5 SSW 9 11 5 6 1028.3 1028.3 0.0
26/09:30pm 10.8 9.9 9.4 91 0.7 SSW 4 9 2 5 1028.5 1028.5 0.0
26/09:00pm 11.1 9.7 9.5 90 0.8 SSW 7 11 4 6 1028.5 1028.5 0.0
26/08:30pm 11.2 9.8 9.5 89 0.9 SSW 7 9 4 5 1028.4 1028.4 0.0
26/08:00pm 12.0 10.8 9.6 85 1.2 SSW 6 11 3 6 1028.3 1028.3 0.0
26/07:30pm 13.6 12.1 10.6 82 1.6 SW 9 9 5 5 1028.0 1028.0 0.0
26/07:00pm 13.9 12.4 10.5 80 1.8 SW 9 13 5 7 1027.8 1027.8 0.0
26/06:30pm 14.7 13.2 10.7 77 2.1 SW 9 13 5 7 1027.7 1027.7 0.0
26/06:00pm 14.9 13.4 10.7 76 2.2 WSW 9 11 5 6 1027.4 1027.4 0.0
26/05:30pm 15.2 13.8 11.0 76 2.2 SW 9 11 5 6 1027.0 1027.0 0.0
26/05:00pm 15.4 13.6 10.8 74 2.4 SW 11 15 6 8 1027.0 1027.0 0.0
26/04:30pm 15.6 13.6 11.6 77 2.2 SSW 13 15 7 8 1027.0 1027.0 0.0
26/04:00pm 16.0 13.1 11.0 72 2.7 SW 17 20 9 11 1027.0 1027.0 0.0
26/03:30pm 16.6 14.8 10.9 69 3.1 WSW 11 15 6 8 1026.9 1026.9 0.0
26/03:00pm 16.7 15.3 10.8 68 3.1 WSW 9 13 5 7 1026.7 1026.7 0.0
26/02:30pm 16.3 14.1 10.8 70 2.9 NW 13 15 7 8 1026.7 1026.7 0.0
26/02:00pm 15.9 13.2 10.4 70 2.9 NW 15 20 8 11 1026.7 1026.7 0.0
26/01:30pm 16.2 13.9 10.3 68 3.1 NW 13 17 7 9 1026.9 1026.9 0.0
26/01:00pm 16.1 13.5 10.6 70 2.9 NNW 15 20 8 11 1027.1 1027.1 0.0
26/12:30pm 17.7 16.2 10.6 63 3.8 W 9 11 5 6 1027.4 1027.4 0.0

Other Formats:

Comma delimited format used in spreadsheet applications
http://www.bom.gov.au/fwo/IDW60801/IDW60801.95611.axf

JavaScript Object Notation format (JSON) in row-major order
http://www.bom.gov.au/fwo/IDW60801/IDW60801.95611.json